Time;durP1;ratioP1;P1;durP2;ratioP2;P2;SDS_P1;SDS_P2;PMS_P1;PMS_P2;Temp;Humidity;BMP_temperature;BMP_pressure;BME280_temperature;BME280_humidity;BME280_pressure;Samples;Min_cycle;Max_cycle;Signal;HPM_P1;HPM_P2
2022/09/11 00:00:40;;;;;;;0.30;0.30;;;25.50;55.50;;;;;;5107446;28;20020;-60
2022/09/11 00:03:07;;;;;;;0.45;0.45;;;25.50;55.40;;;;;;5107420;28;20012;-60
2022/09/11 00:05:38;;;;;;;0.28;0.28;;;25.50;55.50;;;;;;5107393;28;20031;-60
2022/09/11 00:08:04;;;;;;;0.30;0.30;;;25.40;55.50;;;;;;5107380;28;20031;-60
2022/09/11 00:10:32;;;;;;;0.50;0.50;;;25.50;55.50;;;;;;5107285;28;20016;-59
2022/09/11 00:12:58;;;;;;;0.30;0.30;;;25.50;55.50;;;;;;5107247;28;20020;-60
2022/09/11 00:15:24;;;;;;;0.40;0.40;;;25.40;55.50;;;;;;5107155;28;20092;-59
2022/09/11 00:17:50;;;;;;;0.40;0.40;;;25.40;55.50;;;;;;5107016;28;20028;-59
2022/09/11 00:20:15;;;;;;;1.70;0.30;;;25.40;55.50;;;;;;5107076;28;20014;-60
2022/09/11 00:22:41;;;;;;;0.38;0.38;;;25.40;56.20;;;;;;5107016;28;20020;-59
2022/09/11 00:25:07;;;;;;;0.65;0.40;;;25.40;55.60;;;;;;5106932;28;20020;-59
2022/09/11 00:27:33;;;;;;;0.65;0.65;;;25.40;55.60;;;;;;5106920;28;20230;-60
2022/09/11 00:30:00;;;;;;;0.22;0.22;;;25.40;56.20;;;;;;5106913;28;20012;-59
2022/09/11 00:32:25;;;;;;;0.43;0.40;;;25.40;55.60;;;;;;5106814;28;20016;-60
2022/09/11 00:34:51;;;;;;;0.30;0.30;;;25.40;55.50;;;;;;5106810;28;20061;-59
2022/09/11 00:37:17;;;;;;;0.30;0.30;;;25.40;55.60;;;;;;5106901;28;20403;-59
2022/09/11 00:39:43;;;;;;;0.65;0.45;;;25.40;55.60;;;;;;5106728;28;20376;-60
2022/09/11 00:42:09;;;;;;;0.40;0.40;;;25.40;55.60;;;;;;5106722;28;20208;-60
2022/09/11 00:44:34;;;;;;;0.50;0.50;;;25.40;55.60;;;;;;5106590;28;20213;-59
2022/09/11 00:47:05;;;;;;;0.82;0.30;;;25.40;55.70;;;;;;5106573;28;20023;-59
2022/09/11 00:49:41;;;;;;;0.30;0.30;;;25.40;55.70;;;;;;5106498;28;20016;-60
2022/09/11 00:52:25;;;;;;;0.47;0.40;;;25.40;55.60;;;;;;5106537;28;20058;-60
2022/09/11 00:55:11;;;;;;;0.40;0.40;;;25.40;55.70;;;;;;5106470;28;20027;-60
2022/09/11 00:57:51;;;;;;;0.68;0.40;;;25.40;55.80;;;;;;5106395;28;20028;-60
2022/09/11 01:00:18;;;;;;;0.43;0.43;;;25.40;55.70;;;;;;5106348;28;20016;-60
2022/09/11 01:02:46;;;;;;;0.55;0.55;;;25.40;55.80;;;;;;5106282;28;20016;-60
2022/09/11 01:05:15;;;;;;;0.45;0.30;;;25.40;55.80;;;;;;5106262;28;20075;-60
2022/09/11 01:07:42;;;;;;;0.63;0.45;;;25.30;55.70;;;;;;5106231;28;20203;-60
2022/09/11 01:10:09;;;;;;;0.30;0.30;;;25.40;55.80;;;;;;5106089;28;20115;-59
2022/09/11 01:12:46;;;;;;;0.45;0.30;;;25.30;55.70;;;;;;5106167;28;20039;-59
2022/09/11 01:15:16;;;;;;;0.40;0.40;;;25.30;55.70;;;;;;5106138;28;20019;-59
2022/09/11 01:17:59;;;;;;;1.88;0.40;;;25.30;55.70;;;;;;5105919;28;20564;-60
2022/09/11 01:21:02;;;;;;;1.35;0.32;;;25.30;55.70;;;;;;5105981;28;20087;-59
2022/09/11 01:23:36;;;;;;;0.90;0.47;;;25.30;55.80;;;;;;5105888;28;20022;-60
2022/09/11 01:26:33;;;;;;;0.40;0.40;;;25.30;55.80;;;;;;5105876;28;20018;-60
2022/09/11 01:29:38;;;;;;;0.57;0.40;;;25.30;55.80;;;;;;5105832;28;20083;-59
2022/09/11 01:32:19;;;;;;;0.40;0.40;;;25.30;55.90;;;;;;5084191;28;20263;-60
2022/09/11 01:35:12;;;;;;;0.52;0.47;;;25.30;55.80;;;;;;5105715;28;20083;-59
2022/09/11 01:37:47;;;;;;;0.50;0.47;;;25.30;55.80;;;;;;5105567;28;20025;-60
2022/09/11 01:40:27;;;;;;;0.25;0.22;;;25.30;55.90;;;;;;5105572;28;20331;-60
2022/09/11 01:43:15;;;;;;;0.55;0.40;;;25.30;55.90;;;;;;5105537;28;20016;-60
2022/09/11 01:45:43;;;;;;;;;;;25.30;55.90;;;;;;5106182;28;20263;-60
2022/09/11 01:48:10;;;;;;;0.57;0.35;;;25.30;56.00;;;;;;5105427;28;19931;-60
2022/09/11 01:50:39;;;;;;;0.30;0.30;;;25.20;55.90;;;;;;5105397;28;20035;-59
2022/09/11 01:53:06;;;;;;;0.60;0.57;;;25.20;55.80;;;;;;5105318;28;20040;-60
2022/09/11 01:55:47;;;;;;;0.47;0.47;;;25.20;55.80;;;;;;5105244;28;20242;-59
2022/09/11 01:58:24;;;;;;;0.55;0.55;;;25.20;55.90;;;;;;5105108;28;20024;-60
2022/09/11 02:00:55;;;;;;;0.65;0.40;;;25.20;55.80;;;;;;5104664;28;20075;-60
2022/09/11 02:03:35;;;;;;;0.40;0.40;;;25.20;55.80;;;;;;5105131;28;20361;-59
2022/09/11 02:06:10;;;;;;;0.35;0.35;;;25.20;55.80;;;;;;5105096;28;20017;-60
2022/09/11 02:08:36;;;;;;;0.40;0.40;;;25.20;55.80;;;;;;5104886;28;20051;-60
2022/09/11 02:11:08;;;;;;;0.43;0.43;;;25.20;55.80;;;;;;5104987;28;20016;-60
2022/09/11 02:13:45;;;;;;;0.30;0.30;;;25.20;55.80;;;;;;5105454;28;20040;-59
2022/09/11 02:16:17;;;;;;;1.30;0.50;;;25.20;55.90;;;;;;5104877;28;20020;-59
2022/09/11 02:18:52;;;;;;;0.35;0.35;;;25.20;55.90;;;;;;5104749;28;20016;-61
2022/09/11 02:21:18;;;;;;;0.68;0.43;;;25.20;55.90;;;;;;5104805;28;20023;-60
2022/09/11 02:23:44;;;;;;;0.32;0.32;;;25.20;55.90;;;;;;5104650;28;20020;-59
2022/09/11 02:26:13;;;;;;;0.30;0.30;;;25.20;55.90;;;;;;5104714;28;20220;-60
2022/09/11 02:28:39;;;;;;;0.77;0.77;;;25.20;55.90;;;;;;5104639;28;20021;-59
2022/09/11 02:31:06;;;;;;;0.28;0.28;;;25.20;56.00;;;;;;5104588;28;20260;-60
2022/09/11 02:33:35;;;;;;;0.70;0.47;;;25.20;56.00;;;;;;5104552;28;20062;-59
2022/09/11 02:36:13;;;;;;;0.57;0.30;;;25.20;55.90;;;;;;5104482;28;20024;-59
2022/09/11 02:39:00;;;;;;;0.95;0.43;;;25.20;55.90;;;;;;5104381;28;20079;-60
2022/09/11 02:41:50;;;;;;;0.63;0.63;;;25.20;56.00;;;;;;5104464;28;20054;-60
2022/09/11 02:44:48;;;;;;;0.70;0.20;;;25.20;56.00;;;;;;5104419;28;20023;-60
2022/09/11 02:47:41;;;;;;;0.43;0.28;;;25.10;56.00;;;;;;5014866;28;20069;-60
2022/09/11 02:50:18;;;;;;;0.35;0.35;;;25.10;56.60;;;;;;5104313;28;20102;-59
2022/09/11 02:53:06;;;;;;;0.20;0.20;;;25.10;56.00;;;;;;5104287;28;20034;-60
2022/09/11 02:55:47;;;;;;;0.40;0.40;;;25.10;56.00;;;;;;5104189;28;20248;-59
2022/09/11 02:58:27;;;;;;;0.28;0.28;;;25.10;56.00;;;;;;5104079;28;20093;-59
2022/09/11 03:00:59;;;;;;;0.20;0.20;;;25.10;56.00;;;;;;5104104;28;20019;-58
2022/09/11 03:03:25;;;;;;;0.32;0.30;;;25.10;55.90;;;;;;5104099;28;20028;-59
2022/09/11 03:05:52;;;;;;;1.15;0.40;;;25.10;56.00;;;;;;5103961;28;20015;-59
2022/09/11 03:08:18;;;;;;;0.50;0.50;;;25.10;56.00;;;;;;5103764;28;20347;-60
2022/09/11 03:10:45;;;;;;;0.20;0.20;;;25.10;56.00;;;;;;5103970;28;20024;-59
2022/09/11 03:13:13;;;;;;;0.83;0.53;;;25.10;56.00;;;;;;5103067;28;20308;-59
2022/09/11 03:15:42;;;;;;;0.30;0.30;;;25.10;56.00;;;;;;5103877;28;20012;-58
2022/09/11 03:18:08;;;;;;;0.40;0.40;;;25.10;56.00;;;;;;5104038;28;20020;-59
2022/09/11 03:20:33;;;;;;;0.30;0.30;;;25.10;56.00;;;;;;5103755;28;20304;-59
2022/09/11 03:22:59;;;;;;;0.40;0.40;;;25.10;56.00;;;;;;5103766;28;20020;-59
2022/09/11 03:25:27;;;;;;;0.38;0.25;;;25.10;56.00;;;;;;5103738;28;20020;-59
2022/09/11 03:27:53;;;;;;;0.40;0.32;;;25.10;56.00;;;;;;5103756;28;20081;-59
2022/09/11 03:30:20;;;;;;;0.28;0.20;;;25.10;56.00;;;;;;5103700;28;20020;-59
2022/09/11 03:32:46;;;;;;;0.30;0.30;;;25.10;56.00;;;;;;5103649;28;20098;-60
2022/09/11 03:35:12;;;;;;;0.52;0.30;;;25.10;56.00;;;;;;5103599;28;20056;-60
2022/09/11 03:37:38;;;;;;;0.40;0.40;;;25.10;56.00;;;;;;5103542;28;20024;-59
2022/09/11 03:40:05;;;;;;;0.43;0.30;;;25.00;55.90;;;;;;5103585;28;20044;-59
2022/09/11 03:42:32;;;;;;;0.30;0.30;;;25.10;56.00;;;;;;5103555;28;20359;-59
2022/09/11 03:44:57;;;;;;;0.20;0.20;;;25.10;56.00;;;;;;5103557;28;20021;-59
2022/09/11 03:47:23;;;;;;;0.40;0.30;;;25.10;56.00;;;;;;5103494;28;20020;-59
2022/09/11 03:49:49;;;;;;;0.40;0.35;;;25.00;56.00;;;;;;5103505;28;20295;-59
2022/09/11 03:52:15;;;;;;;0.50;0.38;;;25.10;56.00;;;;;;5103494;28;20044;-59
2022/09/11 03:54:41;;;;;;;2.58;0.50;;;25.00;55.90;;;;;;5103430;28;20208;-58
2022/09/11 03:57:08;;;;;;;0.28;0.28;;;25.00;56.00;;;;;;5103401;28;20072;-60
2022/09/11 03:59:34;;;;;;;0.65;0.40;;;25.00;56.00;;;;;;5103326;28;20223;-60
2022/09/11 04:02:00;;;;;;;0.40;0.30;;;25.00;56.00;;;;;;5103398;28;20039;-59
2022/09/11 04:04:25;;;;;;;0.45;0.30;;;25.00;56.00;;;;;;5103881;28;20013;-59
2022/09/11 04:06:51;;;;;;;0.32;0.32;;;25.00;56.00;;;;;;5103337;28;20053;-59
2022/09/11 04:09:17;;;;;;;0.63;0.30;;;25.00;55.90;;;;;;5103294;28;20072;-59
2022/09/11 04:11:43;;;;;;;1.85;0.30;;;25.00;56.00;;;;;;5103263;28;20020;-59
2022/09/11 04:14:09;;;;;;;0.25;0.25;;;25.00;56.00;;;;;;5103280;28;20255;-60
2022/09/11 04:16:35;;;;;;;0.68;0.40;;;25.00;56.00;;;;;;5103312;28;20020;-59
2022/09/11 04:19:01;;;;;;;0.32;0.20;;;25.00;56.10;;;;;;5103156;28;20125;-60
2022/09/11 04:21:27;;;;;;;0.38;0.32;;;25.00;56.10;;;;;;5103190;28;20016;-59
2022/09/11 04:23:58;;;;;;;0.30;0.30;;;25.00;56.10;;;;;;5103534;28;20016;-60
2022/09/11 04:26:26;;;;;;;0.20;0.20;;;25.00;56.00;;;;;;5107024;28;20079;-60
2022/09/11 04:28:52;;;;;;;0.60;0.35;;;25.00;56.00;;;;;;5106972;28;20027;-60
2022/09/11 04:31:19;;;;;;;0.35;0.28;;;25.00;56.00;;;;;;5107476;28;20204;-61
2022/09/11 04:33:46;;;;;;;0.30;0.30;;;25.00;56.10;;;;;;5106896;28;20026;-60
2022/09/11 04:36:16;;;;;;;0.30;0.30;;;25.00;56.10;;;;;;5106856;28;20022;-60
2022/09/11 04:38:43;;;;;;;0.28;0.28;;;25.00;56.20;;;;;;5106726;28;20016;-60
2022/09/11 04:41:09;;;;;;;0.40;0.40;;;25.00;56.10;;;;;;5106781;28;20069;-60
2022/09/11 04:43:37;;;;;;;0.40;0.20;;;25.00;56.10;;;;;;5106645;28;20020;-60
2022/09/11 04:46:14;;;;;;;0.30;0.30;;;25.00;56.00;;;;;;5106614;28;20038;-61
2022/09/11 04:48:47;;;;;;;0.30;0.30;;;25.00;56.10;;;;;;5106643;28;20032;-59
2022/09/11 04:51:25;;;;;;;0.10;0.10;;;25.00;56.10;;;;;;5106730;28;20031;-59
2022/09/11 04:53:56;;;;;;;0.40;0.40;;;25.00;56.10;;;;;;5106499;28;20223;-60
2022/09/11 04:56:23;;;;;;;0.20;0.20;;;25.00;56.10;;;;;;5106509;28;20035;-59
2022/09/11 04:59:02;;;;;;;0.60;0.40;;;25.00;56.10;;;;;;5106256;28;20020;-59
2022/09/11 05:01:29;;;;;;;0.20;0.20;;;25.00;56.10;;;;;;5106364;28;20303;-59
2022/09/11 05:03:56;;;;;;;0.43;0.40;;;25.00;56.10;;;;;;5106516;28;20016;-59
2022/09/11 05:06:22;;;;;;;0.20;0.20;;;25.00;56.10;;;;;;5106226;28;20020;-59
2022/09/11 05:08:49;;;;;;;0.30;0.30;;;24.90;56.00;;;;;;5106060;28;20048;-59
2022/09/11 05:11:17;;;;;;;0.27;0.27;;;24.90;56.00;;;;;;5106075;28;20024;-59
2022/09/11 05:13:43;;;;;;;0.40;0.32;;;25.00;56.00;;;;;;5106170;28;20035;-60
2022/09/11 05:16:15;;;;;;;0.25;0.25;;;25.00;56.10;;;;;;5106014;28;20027;-60
2022/09/11 05:18:47;;;;;;;0.20;0.20;;;25.00;56.10;;;;;;5105885;28;20066;-59
2022/09/11 05:21:15;;;;;;;0.45;0.45;;;25.00;56.10;;;;;;5105970;28;20016;-59
2022/09/11 05:23:41;;;;;;;;;;;25.00;56.10;;;;;;5106310;28;20326;-60
2022/09/11 05:26:14;;;;;;;0.45;0.40;;;25.00;56.10;;;;;;5105868;28;19927;-60
2022/09/11 05:28:40;;;;;;;0.30;0.30;;;25.00;56.10;;;;;;5105840;28;20079;-60
2022/09/11 05:31:16;;;;;;;1.73;0.30;;;25.00;56.00;;;;;;5105736;28;20027;-60
2022/09/11 05:33:44;;;;;;;0.30;0.30;;;25.00;56.10;;;;;;5105741;28;20028;-60
2022/09/11 05:36:11;;;;;;;0.30;0.30;;;25.00;56.00;;;;;;5104803;28;20012;-59
2022/09/11 05:38:40;;;;;;;0.40;0.40;;;25.00;56.10;;;;;;5105565;28;20062;-60
2022/09/11 05:41:11;;;;;;;0.43;0.43;;;25.00;56.00;;;;;;5105613;28;20020;-59
2022/09/11 05:43:39;;;;;;;0.20;0.20;;;25.00;56.10;;;;;;5105531;28;20051;-59
2022/09/11 05:46:06;;;;;;;0.30;0.30;;;25.00;56.70;;;;;;5105490;28;20016;-60
2022/09/11 05:48:33;;;;;;;0.50;0.50;;;25.00;56.00;;;;;;5105425;28;20016;-60
2022/09/11 05:51:01;;;;;;;1.05;0.40;;;24.90;56.00;;;;;;5105377;28;20293;-61
2022/09/11 05:53:32;;;;;;;0.20;0.20;;;24.90;56.10;;;;;;5105323;28;20031;-59
2022/09/11 05:56:14;;;;;;;0.28;0.28;;;25.00;56.10;;;;;;5105614;28;20050;-60
2022/09/11 05:58:40;;;;;;;0.20;0.20;;;24.90;56.00;;;;;;5105127;28;20235;-59
2022/09/11 06:01:12;;;;;;;0.20;0.20;;;24.90;56.00;;;;;;5105157;28;20012;-59
2022/09/11 06:03:38;;;;;;;0.50;0.30;;;24.90;56.10;;;;;;5105145;28;20016;-59
2022/09/11 06:06:07;;;;;;;0.75;0.40;;;24.90;56.10;;;;;;5105046;28;20062;-60
2022/09/11 06:08:33;;;;;;;0.35;0.35;;;24.90;56.10;;;;;;5104913;28;20048;-60
2022/09/11 06:11:01;;;;;;;0.38;0.32;;;24.90;56.10;;;;;;5104997;28;20020;-60
2022/09/11 06:13:32;;;;;;;0.30;0.25;;;24.90;56.10;;;;;;5104954;28;20053;-59
2022/09/11 06:15:59;;;;;;;0.50;0.30;;;24.90;56.10;;;;;;5104892;28;20320;-60
2022/09/11 06:18:25;;;;;;;0.20;0.20;;;24.90;56.20;;;;;;5086646;28;20304;-60
2022/09/11 06:20:58;;;;;;;0.52;0.38;;;24.90;56.20;;;;;;5104808;28;20020;-60
2022/09/11 06:23:24;;;;;;;0.40;0.40;;;24.90;56.10;;;;;;5104792;28;20061;-60
2022/09/11 06:25:53;;;;;;;0.30;0.30;;;24.90;56.10;;;;;;5104707;28;20087;-59
2022/09/11 06:28:22;;;;;;;0.55;0.40;;;24.90;56.10;;;;;;5104653;28;20307;-60
2022/09/11 06:30:51;;;;;;;0.30;0.30;;;24.90;56.10;;;;;;5104659;28;20027;-60
2022/09/11 06:33:19;;;;;;;0.77;0.30;;;24.90;56.10;;;;;;5104607;28;20016;-60
2022/09/11 06:36:02;;;;;;;0.20;0.20;;;24.90;56.60;;;;;;5104825;28;20021;-60
2022/09/11 06:38:30;;;;;;;0.30;0.30;;;24.90;56.10;;;;;;5104417;28;20311;-60
2022/09/11 06:40:56;;;;;;;0.20;0.20;;;25.00;56.20;;;;;;5104485;28;20181;-60
2022/09/11 06:43:22;;;;;;;0.20;0.20;;;24.90;56.10;;;;;;5104413;28;20101;-60
2022/09/11 06:45:48;;;;;;;0.47;0.32;;;24.90;56.20;;;;;;5104330;28;20075;-59
2022/09/11 06:48:18;;;;;;;0.38;0.28;;;24.90;56.20;;;;;;5104494;28;20258;-60
2022/09/11 06:50:44;;;;;;;0.30;0.25;;;24.90;56.20;;;;;;5104246;28;20312;-58
2022/09/11 06:53:11;;;;;;;0.40;0.30;;;24.80;56.20;;;;;;5104272;28;20028;-59
2022/09/11 06:55:40;;;;;;;0.40;0.30;;;24.90;56.20;;;;;;5104217;28;20212;-58
2022/09/11 06:58:07;;;;;;;0.38;0.30;;;24.90;56.20;;;;;;5104335;28;20024;-59
2022/09/11 07:00:35;;;;;;;0.20;0.20;;;24.90;56.20;;;;;;5104162;28;20011;-60
2022/09/11 07:03:01;;;;;;;0.20;0.20;;;24.90;56.20;;;;;;5104129;28;20026;-60
2022/09/11 07:05:27;;;;;;;0.30;0.30;;;24.90;56.10;;;;;;5104035;28;20016;-59
2022/09/11 07:07:54;;;;;;;0.35;0.35;;;24.90;56.70;;;;;;5104026;28;20243;-59
2022/09/11 07:10:21;;;;;;;0.25;0.25;;;24.90;56.70;;;;;;5103990;28;20040;-59
2022/09/11 07:12:48;;;;;;;0.20;0.20;;;24.90;56.10;;;;;;5103961;28;20024;-60
2022/09/11 07:15:13;;;;;;;0.25;0.25;;;24.90;56.00;;;;;;5103919;28;20030;-60
2022/09/11 07:17:39;;;;;;;0.40;0.40;;;24.90;56.10;;;;;;5103778;28;20016;-59
2022/09/11 07:20:07;;;;;;;0.38;0.38;;;24.90;56.10;;;;;;5103833;28;20027;-59
2022/09/11 07:22:34;;;;;;;;;;;24.90;56.20;;;;;;5104257;28;20012;-60
2022/09/11 07:25:00;;;;;;;0.28;0.28;;;24.90;56.80;;;;;;5085765;28;19900;-60
2022/09/11 07:27:27;;;;;;;0.30;0.30;;;24.90;56.10;;;;;;5103748;28;20089;-60
2022/09/11 07:29:53;;;;;;;0.38;0.38;;;24.90;56.10;;;;;;5103729;28;20326;-60
2022/09/11 07:32:18;;;;;;;0.52;0.30;;;24.90;56.20;;;;;;5103705;28;20061;-60
2022/09/11 07:34:46;;;;;;;0.40;0.40;;;24.90;56.30;;;;;;5103683;28;20023;-61
2022/09/11 07:37:12;;;;;;;0.28;0.28;;;24.90;56.30;;;;;;5104232;28;20081;-60
2022/09/11 07:39:39;;;;;;;0.30;0.30;;;24.90;56.20;;;;;;5103567;28;20330;-60
2022/09/11 07:42:06;;;;;;;0.30;0.30;;;24.90;56.20;;;;;;5103594;28;20020;-60
2022/09/11 07:44:33;;;;;;;0.40;0.40;;;24.90;56.10;;;;;;5103623;28;20016;-60
2022/09/11 07:46:59;;;;;;;0.30;0.30;;;24.90;56.10;;;;;;5103555;28;20023;-60
2022/09/11 07:49:26;;;;;;;0.45;0.45;;;25.00;56.10;;;;;;5103547;28;20022;-59
2022/09/11 07:51:53;;;;;;;0.38;0.28;;;25.00;56.10;;;;;;5103503;28;20015;-59
2022/09/11 07:54:22;;;;;;;0.28;0.28;;;25.00;56.00;;;;;;5103564;28;20236;-60
2022/09/11 07:56:48;;;;;;;0.30;0.30;;;25.00;56.00;;;;;;5103458;28;20335;-60
2022/09/11 07:59:17;;;;;;;0.30;0.30;;;25.00;55.90;;;;;;5104322;28;20023;-60
2022/09/11 08:01:43;;;;;;;0.25;0.25;;;25.00;56.00;;;;;;5107501;28;20016;-60
2022/09/11 08:04:13;;;;;;;0.30;0.30;;;25.00;55.80;;;;;;5107434;28;20012;-60
2022/09/11 08:06:38;;;;;;;0.73;0.30;;;25.00;55.90;;;;;;5107435;28;20016;-60
2022/09/11 08:09:13;;;;;;;0.40;0.40;;;25.00;55.90;;;;;;5107119;28;20346;-60
2022/09/11 08:11:42;;;;;;;0.30;0.30;;;25.00;55.90;;;;;;5089242;28;20336;-60
2022/09/11 08:14:10;;;;;;;0.40;0.40;;;25.00;55.90;;;;;;5107260;28;20043;-59
2022/09/11 08:16:36;;;;;;;0.30;0.30;;;25.00;55.90;;;;;;5107227;28;20027;-59
2022/09/11 08:19:02;;;;;;;0.20;0.20;;;25.00;56.00;;;;;;5107088;28;20024;-60
2022/09/11 08:21:28;;;;;;;0.35;0.35;;;25.00;56.00;;;;;;5107176;28;20020;-60
2022/09/11 08:23:54;;;;;;;0.30;0.20;;;25.00;56.00;;;;;;5107148;28;20020;-60
2022/09/11 08:26:23;;;;;;;0.30;0.22;;;25.00;56.00;;;;;;5107643;28;20027;-59
2022/09/11 08:28:50;;;;;;;0.30;0.30;;;25.00;56.00;;;;;;5106988;28;20061;-60
2022/09/11 08:31:18;;;;;;;0.35;0.28;;;25.00;56.00;;;;;;5106989;28;20016;-60
2022/09/11 08:33:45;;;;;;;0.30;0.30;;;25.00;56.10;;;;;;5106925;28;20066;-60
2022/09/11 08:36:14;;;;;;;0.20;0.20;;;25.00;56.10;;;;;;5106862;28;20024;-59
2022/09/11 08:38:41;;;;;;;0.30;0.30;;;25.00;56.10;;;;;;5106741;28;20020;-60
2022/09/11 08:41:33;;;;;;;0.73;0.30;;;25.00;56.10;;;;;;5106836;28;20089;-60
2022/09/11 08:44:08;;;;;;;0.20;0.20;;;25.00;56.10;;;;;;5106695;28;20075;-58
2022/09/11 08:46:40;;;;;;;0.30;0.30;;;25.00;56.20;;;;;;5106699;28;20048;-59
2022/09/11 08:49:29;;;;;;;0.40;0.30;;;25.00;56.70;;;;;;5088573;28;20069;-60
2022/09/11 08:52:01;;;;;;;0.30;0.30;;;25.00;56.10;;;;;;5106573;28;20016;-59
2022/09/11 08:54:30;;;;;;;1.17;0.30;;;25.00;56.10;;;;;;5106499;28;20027;-59
2022/09/11 08:57:24;;;;;;;0.22;0.22;;;25.00;56.00;;;;;;5106485;28;20046;-59
2022/09/11 09:00:17;;;;;;;0.30;0.30;;;25.00;56.00;;;;;;5106374;28;20297;-59
2022/09/11 09:03:01;;;;;;;0.30;0.30;;;25.00;56.00;;;;;;5106340;28;20020;-59
2022/09/11 09:05:34;;;;;;;0.30;0.30;;;25.00;56.00;;;;;;5106353;28;20050;-59
2022/09/11 09:08:12;;;;;;;0.30;0.30;;;25.00;56.00;;;;;;5106272;28;20331;-60
2022/09/11 09:10:44;;;;;;;;;;;25.00;55.90;;;;;;5105386;28;20042;-61
2022/09/11 09:13:41;;;;;;;0.40;0.40;;;25.10;56.00;;;;;;5106211;28;19971;-60
2022/09/11 09:16:18;;;;;;;0.20;0.20;;;25.10;56.00;;;;;;5106145;28;20075;-59
2022/09/11 09:19:03;;;;;;;0.38;0.30;;;25.00;55.90;;;;;;5106005;28;20272;-60
2022/09/11 09:21:41;;;;;;;0.40;0.40;;;25.10;56.00;;;;;;5106024;28;20030;-59
2022/09/11 09:24:20;;;;;;;0.20;0.20;;;25.10;56.00;;;;;;5106042;28;20019;-59
2022/09/11 09:26:56;;;;;;;0.30;0.30;;;25.10;56.00;;;;;;5087959;28;20091;-59
2022/09/11 09:29:37;;;;;;;0.43;0.43;;;25.10;56.00;;;;;;5105878;28;20023;-60
2022/09/11 09:32:14;;;;;;;0.20;0.20;;;25.10;55.90;;;;;;5105855;28;20326;-59
2022/09/11 09:34:43;;;;;;;0.20;0.20;;;25.10;56.00;;;;;;5105815;28;20340;-61
2022/09/11 09:37:19;;;;;;;0.73;0.25;;;25.10;56.00;;;;;;5105726;28;20020;-60
2022/09/11 09:39:46;;;;;;;0.20;0.20;;;25.10;56.00;;;;;;5105570;28;20023;-59
2022/09/11 09:42:47;;;;;;;0.20;0.20;;;25.10;56.00;;;;;;5105574;28;20012;-60
2022/09/11 09:45:26;;;;;;;0.30;0.30;;;25.10;56.00;;;;;;5105581;28;20012;-59
2022/09/11 09:47:52;;;;;;;0.45;0.45;;;25.00;56.00;;;;;;5105802;28;20340;-60
2022/09/11 09:50:32;;;;;;;0.32;0.32;;;25.00;56.00;;;;;;5105430;28;20030;-60
2022/09/11 09:53:34;;;;;;;0.20;0.20;;;25.10;56.00;;;;;;5105424;28;20024;-59
2022/09/11 09:56:03;;;;;;;0.43;0.22;;;25.00;56.00;;;;;;5105371;28;20023;-59
2022/09/11 09:58:33;;;;;;;;;;;25.10;56.00;;;;;;5105602;28;20024;-59
2022/09/11 10:00:59;;;;;;;0.30;0.30;;;25.10;55.90;;;;;;5105278;28;19900;-60
2022/09/11 10:03:25;;;;;;;0.20;0.20;;;25.10;55.90;;;;;;5105192;28;20344;-59
2022/09/11 10:05:55;;;;;;;0.30;0.30;;;25.10;55.80;;;;;;5105130;28;20242;-60
2022/09/11 10:08:36;;;;;;;0.30;0.30;;;25.10;55.80;;;;;;5104917;28;20023;-59
2022/09/11 10:11:05;;;;;;;0.20;0.20;;;25.10;56.00;;;;;;5105058;28;20028;-59
2022/09/11 10:13:35;;;;;;;0.30;0.30;;;25.00;56.00;;;;;;5105031;28;20183;-60
2022/09/11 10:16:03;;;;;;;0.20;0.20;;;25.00;56.00;;;;;;5104980;28;20035;-59
2022/09/11 10:18:29;;;;;;;0.30;0.30;;;25.00;56.00;;;;;;5104835;28;20016;-59
2022/09/11 10:21:28;;;;;;;0.30;0.30;;;25.10;56.00;;;;;;5104871;28;20020;-59
2022/09/11 10:24:02;;;;;;;0.30;0.30;;;25.10;55.90;;;;;;5085741;28;20086;-60
2022/09/11 10:26:40;;;;;;;0.40;0.30;;;25.10;55.90;;;;;;5086726;28;20211;-59
2022/09/11 10:29:28;;;;;;;0.32;0.30;;;25.10;55.80;;;;;;5104775;28;20016;-59
2022/09/11 10:32:02;;;;;;;0.28;0.20;;;25.20;56.00;;;;;;5086546;28;20028;-59
2022/09/11 10:34:39;;;;;;;0.17;0.17;;;25.20;56.00;;;;;;5104620;28;20316;-60
2022/09/11 10:37:12;;;;;;;0.30;0.30;;;25.10;55.90;;;;;;5104613;28;20032;-60
2022/09/11 10:39:40;;;;;;;0.20;0.20;;;25.20;55.70;;;;;;5104407;28;20022;-59
2022/09/11 10:42:28;;;;;;;0.30;0.30;;;25.30;55.80;;;;;;5104487;28;20320;-60
2022/09/11 10:45:07;;;;;;;0.30;0.30;;;25.30;55.80;;;;;;5104301;28;20028;-59
2022/09/11 10:47:33;;;;;;;0.20;0.20;;;25.20;55.70;;;;;;5104381;28;20020;-60
2022/09/11 10:50:20;;;;;;;0.30;0.30;;;25.20;55.80;;;;;;5104605;28;20039;-61
2022/09/11 10:53:11;;;;;;;0.52;0.43;;;25.20;55.80;;;;;;5104241;28;20080;-59
2022/09/11 10:55:47;;;;;;;0.30;0.30;;;25.20;55.80;;;;;;5104248;28;20020;-60
2022/09/11 10:58:17;;;;;;;0.30;0.30;;;25.20;55.80;;;;;;5104183;28;20024;-59
2022/09/11 11:00:43;;;;;;;1.08;0.20;;;25.20;55.80;;;;;;5104140;28;20016;-59
2022/09/11 11:03:23;;;;;;;0.20;0.20;;;25.20;55.90;;;;;;5104070;28;20023;-59
2022/09/11 11:06:19;;;;;;;0.30;0.30;;;25.20;55.90;;;;;;5104291;28;20008;-60
2022/09/11 11:09:02;;;;;;;0.20;0.20;;;25.20;55.90;;;;;;5103841;28;20251;-60
2022/09/11 11:11:55;;;;;;;0.25;0.25;;;25.20;55.90;;;;;;5103631;28;20065;-59
2022/09/11 11:14:38;;;;;;;0.30;0.15;;;25.20;55.90;;;;;;5103903;28;20078;-59
2022/09/11 11:17:21;;;;;;;0.40;0.40;;;25.20;55.90;;;;;;5103889;28;20019;-59
2022/09/11 11:20:21;;;;;;;0.13;0.13;;;25.20;55.90;;;;;;5103828;28;20018;-59
2022/09/11 11:23:23;;;;;;;0.30;0.30;;;25.30;55.90;;;;;;5103806;28;20016;-57
2022/09/11 11:26:45;;;;;;;0.28;0.28;;;25.20;55.90;;;;;;5103828;28;20044;-59
2022/09/11 11:29:24;;;;;;;0.15;0.15;;;25.20;55.80;;;;;;4985901;28;20026;-59
2022/09/11 11:32:08;;;;;;;0.40;0.25;;;25.20;55.90;;;;;;5002242;28;20089;-59
2022/09/11 11:35:07;;;;;;;0.20;0.20;;;25.20;56.00;;;;;;5083909;28;20039;-59
2022/09/11 11:37:38;;;;;;;0.30;0.20;;;25.20;56.10;;;;;;5103688;28;20016;-59
2022/09/11 11:40:30;;;;;;;0.20;0.20;;;25.20;56.10;;;;;;5103623;28;20023;-60
2022/09/11 11:43:04;;;;;;;0.20;0.20;;;25.20;56.00;;;;;;5103642;28;20027;-59
2022/09/11 11:45:56;;;;;;;0.20;0.20;;;25.30;56.00;;;;;;5103572;28;20080;-59
2022/09/11 11:48:28;;;;;;;0.30;0.30;;;25.30;55.90;;;;;;5103589;28;20019;-58
2022/09/11 11:50:59;;;;;;;0.15;0.15;;;25.30;55.90;;;;;;5103569;28;20016;-59
2022/09/11 11:53:41;;;;;;;0.28;0.28;;;25.30;55.90;;;;;;5103566;28;20012;-60
2022/09/11 11:56:45;;;;;;;0.38;0.38;;;25.20;56.00;;;;;;5103570;28;20012;-60
2022/09/11 11:59:14;;;;;;;0.20;0.20;;;25.30;55.90;;;;;;5103442;28;20016;-59
2022/09/11 12:01:53;;;;;;;1.27;0.20;;;25.30;56.00;;;;;;5103481;28;20020;-59
2022/09/11 12:04:38;;;;;;;0.20;0.20;;;25.30;56.60;;;;;;5103476;28;20066;-60
2022/09/11 12:07:12;;;;;;;0.22;0.22;;;25.30;55.80;;;;;;5103465;28;20016;-60
2022/09/11 12:09:38;;;;;;;0.80;0.22;;;25.30;55.80;;;;;;5103445;28;20213;-59
2022/09/11 12:12:06;;;;;;;0.30;0.30;;;25.30;55.80;;;;;;5103362;28;20031;-60
2022/09/11 12:14:33;;;;;;;0.20;0.20;;;25.30;55.90;;;;;;5103667;28;20024;-60
2022/09/11 12:17:17;;;;;;;0.20;0.20;;;25.30;55.90;;;;;;5103347;28;20026;-60
2022/09/11 12:20:10;;;;;;;0.15;0.15;;;25.30;55.90;;;;;;5103231;28;20028;-60
2022/09/11 12:22:38;;;;;;;0.55;0.30;;;25.30;56.00;;;;;;5103234;28;20012;-60
2022/09/11 12:25:29;;;;;;;0.13;0.10;;;25.30;56.00;;;;;;5103281;28;20022;-59
2022/09/11 12:28:21;;;;;;;0.75;0.45;;;25.30;56.00;;;;;;5103096;28;20020;-59
2022/09/11 12:31:08;;;;;;;0.15;0.15;;;25.40;55.90;;;;;;5103213;28;20023;-60
2022/09/11 12:33:39;;;;;;;0.22;0.22;;;25.40;55.70;;;;;;5085165;28;20280;-59
2022/09/11 12:36:22;;;;;;;1.13;0.50;;;25.40;55.70;;;;;;5103151;28;20016;-59
2022/09/11 12:39:05;;;;;;;0.20;0.20;;;25.40;55.80;;;;;;5103098;28;20016;-60
2022/09/11 12:41:36;;;;;;;0.50;0.50;;;25.40;55.80;;;;;;5103136;28;20027;-60
2022/09/11 12:44:03;;;;;;;0.20;0.20;;;25.40;55.80;;;;;;5103054;28;20016;-59
2022/09/11 12:46:29;;;;;;;0.30;0.30;;;25.40;55.70;;;;;;5105785;28;20019;-59
2022/09/11 12:49:09;;;;;;;0.75;0.50;;;25.40;55.60;;;;;;5106668;28;20026;-59
2022/09/11 12:51:41;;;;;;;0.30;0.30;;;25.50;55.60;;;;;;5106649;28;20020;-59
2022/09/11 12:54:21;;;;;;;0.22;0.22;;;25.50;55.60;;;;;;5106587;28;20016;-59
2022/09/11 12:56:58;;;;;;;0.30;0.30;;;25.50;55.50;;;;;;5106535;28;20012;-60
2022/09/11 12:59:30;;;;;;;0.22;0.22;;;25.60;55.50;;;;;;5106670;28;20024;-60
2022/09/11 13:01:56;;;;;;;0.30;0.30;;;25.60;55.30;;;;;;5106476;28;20016;-60
2022/09/11 13:04:27;;;;;;;0.20;0.20;;;25.70;55.30;;;;;;5106378;28;20075;-60
2022/09/11 13:07:04;;;;;;;0.40;0.25;;;25.80;55.00;;;;;;5106357;28;20023;-60
2022/09/11 13:09:46;;;;;;;0.23;0.23;;;25.90;54.90;;;;;;5106152;28;20108;-60
2022/09/11 13:12:24;;;;;;;0.47;0.47;;;26.00;54.70;;;;;;5106527;28;20069;-60
2022/09/11 13:14:57;;;;;;;0.38;0.30;;;26.10;54.50;;;;;;5106212;28;20027;-60
2022/09/11 13:17:29;;;;;;;0.22;0.20;;;26.20;54.20;;;;;;5106112;28;20080;-59